createdAt,value
2022-08-20T00:01:21.660Z,97997.45
2022-08-20T00:03:53.998Z,97993.43
2022-08-20T00:06:27.586Z,97997.41
2022-08-20T00:08:59.705Z,98001.55
2022-08-20T00:11:33.762Z,98013.41
2022-08-20T00:14:07.730Z,98021.28
2022-08-20T00:16:40.525Z,98028.19
2022-08-20T00:19:12.861Z,98031.31
2022-08-20T00:21:45.527Z,98031.61
2022-08-20T00:24:19.306Z,98026.52
2022-08-20T00:26:52.404Z,98025.90
2022-08-20T00:29:25.081Z,98013.75
2022-08-20T00:31:57.370Z,98002.27
2022-08-20T00:34:30.302Z,98001.08
2022-08-20T00:37:02.910Z,97989.80
2022-08-20T00:39:35.145Z,97991.39
2022-08-20T00:42:09.586Z,98007.13
2022-08-20T00:44:48.043Z,98015.92
2022-08-20T00:47:20.837Z,98019.68
2022-08-20T00:49:52.999Z,98021.80
2022-08-20T00:52:25.399Z,98028.81
2022-08-20T00:55:02.897Z,98025.43
2022-08-20T00:57:59.043Z,98021.98
2022-08-20T01:00:41.316Z,98023.60
2022-08-20T01:03:17.824Z,98027.09
2022-08-20T01:05:52.585Z,98024.02
2022-08-20T01:08:26.688Z,98019.66
2022-08-20T01:11:10.251Z,98020.54
2022-08-20T01:13:44.077Z,98021.98
2022-08-20T01:16:22.444Z,98020.44
2022-08-20T01:18:57.694Z,98021.66
2022-08-20T01:21:33.829Z,98016.05
2022-08-20T01:24:14.140Z,98014.84
2022-08-20T01:26:47.359Z,98015.73
2022-08-20T01:29:23.925Z,98016.20
2022-08-20T01:32:01.481Z,98006.79
2022-08-20T01:34:34.864Z,98001.50
2022-08-20T01:37:07.593Z,98000.33
2022-08-20T01:39:40.169Z,98000.73
2022-08-20T01:42:19.699Z,97993.30
2022-08-20T01:44:52.978Z,97989.91
2022-08-20T01:47:31.258Z,97989.20
2022-08-20T01:50:19.076Z,97989.32
2022-08-20T01:52:58.783Z,97986.53
2022-08-20T01:55:31.528Z,97980.95
2022-08-20T01:58:04.605Z,97983.63
2022-08-20T02:00:37.423Z,97984.88
2022-08-20T02:03:09.665Z,97981.38
2022-08-20T02:05:42.156Z,97970.55
2022-08-20T02:08:14.324Z,97959.41
2022-08-20T02:10:48.395Z,97959.45
2022-08-20T02:13:20.797Z,97957.71
2022-08-20T02:15:52.931Z,97959.19
2022-08-20T02:18:25.182Z,97965.38
2022-08-20T02:20:57.726Z,97969.69
2022-08-20T02:23:29.979Z,97971.09
2022-08-20T02:26:02.239Z,97974.23
2022-08-20T02:28:34.815Z,97975.96
2022-08-20T02:31:09.195Z,97975.73
2022-08-20T02:33:41.328Z,97968.80
2022-08-20T02:36:34.172Z,97964.88
2022-08-20T02:39:08.492Z,97961.52
2022-08-20T02:41:41.935Z,97951.21
2022-08-20T02:44:14.131Z,97952.77
2022-08-20T02:46:46.619Z,97946.23
2022-08-20T02:49:20.048Z,97945.51
2022-08-20T02:51:52.308Z,97947.50
2022-08-20T02:54:24.599Z,97951.88
2022-08-20T02:56:56.760Z,97946.53
2022-08-20T02:59:28.996Z,97948.59
2022-08-20T03:02:02.265Z,97949.89
2022-08-20T03:04:34.695Z,97944.21
2022-08-20T03:07:07.971Z,97943.72
2022-08-20T03:09:43.390Z,97938.83
2022-08-20T03:12:15.881Z,97928.73
2022-08-20T03:14:48.017Z,97914.79
2022-08-20T03:17:20.767Z,97907.27
2022-08-20T03:19:53.565Z,97913.10
2022-08-20T03:22:25.844Z,97912.96
2022-08-20T03:24:58.069Z,97917.43
2022-08-20T03:27:32.670Z,97916.70
2022-08-20T03:30:12.345Z,97922.52
2022-08-20T03:32:44.844Z,97926.86
2022-08-20T03:35:19.941Z,97924.51
2022-08-20T03:37:52.602Z,97925.58
2022-08-20T03:40:30.982Z,97922.40
2022-08-20T03:43:03.967Z,97921.98
2022-08-20T03:45:37.157Z,97921.24
2022-08-20T03:48:14.476Z,97921.05
2022-08-20T03:50:49.258Z,97919.05
2022-08-20T03:53:22.556Z,97917.83
2022-08-20T03:56:02.108Z,97915.52
2022-08-20T03:58:36.406Z,97916.00
2022-08-20T04:01:44.260Z,97913.81
2022-08-20T04:04:01.676Z,97913.98
2022-08-20T04:06:33.949Z,97918.16
2022-08-20T04:09:06.579Z,97918.00
2022-08-20T04:11:39.342Z,97927.92
2022-08-20T04:14:13.350Z,97930.23
2022-08-20T04:16:49.763Z,97931.81
2022-08-20T04:19:23.655Z,97926.00
2022-08-20T04:21:55.841Z,97921.69
2022-08-20T04:24:32.208Z,97923.65
2022-08-20T04:27:05.402Z,97920.95
2022-08-20T04:29:38.707Z,97919.28
2022-08-20T04:32:12.314Z,97918.83
2022-08-20T04:34:44.537Z,97921.84
2022-08-20T04:37:25.845Z,97916.59
2022-08-20T04:40:15.651Z,97921.77
2022-08-20T04:42:47.857Z,97919.43
2022-08-20T04:45:26.035Z,97921.47
2022-08-20T04:47:58.733Z,97923.27
2022-08-20T04:50:34.644Z,97920.92
2022-08-20T04:53:09.179Z,97920.63
2022-08-20T04:55:43.834Z,97918.91
2022-08-20T04:58:22.306Z,97914.46
2022-08-20T05:01:01.408Z,97911.72
2022-08-20T05:03:35.014Z,97916.39
2022-08-20T05:06:10.023Z,97919.44
2022-08-20T05:08:42.662Z,97914.27
2022-08-20T05:11:34.845Z,97910.30
2022-08-20T05:14:09.879Z,97908.52
2022-08-20T05:16:42.989Z,97915.59
2022-08-20T05:19:15.681Z,97917.07
2022-08-20T05:21:48.212Z,97912.36
2022-08-20T05:24:21.493Z,97912.36
2022-08-20T05:26:55.743Z,97909.27
2022-08-20T05:29:28.349Z,97907.56
2022-08-20T05:32:00.545Z,97916.10
2022-08-20T05:34:33.342Z,97915.40
2022-08-20T05:37:06.204Z,97909.21
2022-08-20T05:39:40.418Z,97902.21
2022-08-20T05:42:12.733Z,97894.08
2022-08-20T05:44:47.047Z,97893.48
2022-08-20T05:47:19.310Z,97905.03
2022-08-20T05:49:54.392Z,97915.64
2022-08-20T05:52:26.756Z,97924.83
2022-08-20T05:54:59.181Z,97922.53
2022-08-20T05:57:31.544Z,97918.98
2022-08-20T06:00:06.880Z,97915.33
2022-08-20T06:03:01.491Z,97917.36
2022-08-20T06:05:34.565Z,97916.80
2022-08-20T06:08:18.434Z,97914.67
2022-08-20T06:10:50.767Z,97907.63
2022-08-20T06:13:23.935Z,97907.54
2022-08-20T06:15:57.595Z,97907.66
2022-08-20T06:18:31.269Z,97919.12
2022-08-20T06:21:03.448Z,97918.75
2022-08-20T06:23:56.367Z,97924.55
2022-08-20T06:26:33.878Z,97925.80
2022-08-20T06:29:06.993Z,97923.64
2022-08-20T06:31:40.127Z,97925.51
2022-08-20T06:34:15.164Z,97925.92
2022-08-20T06:36:47.804Z,97926.43
2022-08-20T06:39:20.405Z,97928.17
2022-08-20T06:41:58.891Z,97929.27
2022-08-20T06:44:31.797Z,97925.09
2022-08-20T06:47:05.802Z,97926.67
2022-08-20T06:49:39.639Z,97923.42
2022-08-20T06:52:12.113Z,97926.59
2022-08-20T06:54:44.374Z,97933.61
2022-08-20T06:57:17.362Z,97943.68
2022-08-20T06:59:54.394Z,97947.73
2022-08-20T07:02:30.162Z,97952.83
2022-08-20T07:05:03.157Z,97945.82
2022-08-20T07:07:37.273Z,97948.63
2022-08-20T07:10:12.775Z,97951.34
2022-08-20T07:12:46.998Z,97953.38
2022-08-20T07:15:20.780Z,97952.89
2022-08-20T07:18:00.262Z,97950.75
2022-08-20T07:20:38.301Z,97955.99
2022-08-20T07:23:11.342Z,97960.17
2022-08-20T07:25:45.231Z,97963.30
2022-08-20T07:28:20.686Z,97957.70
2022-08-20T07:34:19.959Z,97961.02
2022-08-20T07:36:52.358Z,97966.27
2022-08-20T07:39:28.486Z,97964.47
2022-08-20T07:42:07.285Z,97957.56
2022-08-20T07:44:39.467Z,97957.88
2022-08-20T07:47:11.716Z,97959.38
2022-08-20T07:49:47.042Z,97952.94
2022-08-20T07:52:19.264Z,97959.22
2022-08-20T07:54:51.608Z,97964.90
2022-08-20T07:57:23.916Z,97965.45
2022-08-20T07:59:59.259Z,97961.90
2022-08-20T08:02:35.249Z,97959.77
2022-08-20T08:05:10.644Z,97955.33
2022-08-20T08:07:43.318Z,97951.47
2022-08-20T08:10:21.570Z,97958.77
2022-08-20T08:12:58.943Z,97960.65
2022-08-20T08:15:34.342Z,97968.31
2022-08-20T08:18:22.534Z,97963.49
2022-08-20T08:20:58.325Z,97962.88
2022-08-20T08:23:31.967Z,97965.55
2022-08-20T08:26:05.471Z,97971.00
2022-08-20T08:28:37.706Z,97968.48
2022-08-20T08:31:09.973Z,97973.17
2022-08-20T08:33:42.525Z,97969.16
2022-08-20T08:36:17.210Z,97961.52
2022-08-20T08:38:49.590Z,97961.33
2022-08-20T08:41:29.631Z,97963.09
2022-08-20T08:44:08.357Z,97962.39
2022-08-20T08:46:48.450Z,97961.35
2022-08-20T08:49:24.661Z,97958.48
2022-08-20T08:52:11.559Z,97965.16
2022-08-20T08:54:48.909Z,97971.25
2022-08-20T08:57:21.322Z,97969.80
2022-08-20T09:00:05.020Z,97970.05
2022-08-20T09:02:42.569Z,97975.21
2022-08-20T09:08:54.345Z,97971.39
2022-08-20T09:11:27.135Z,97973.27
2022-08-20T09:13:59.740Z,97965.79
2022-08-20T09:16:52.038Z,97968.09
2022-08-20T09:19:24.541Z,97960.69
2022-08-20T09:21:56.830Z,97959.64
2022-08-20T09:24:29.115Z,97964.34
2022-08-20T09:27:01.413Z,97971.72
2022-08-20T09:29:37.097Z,97971.30
2022-08-20T09:32:12.346Z,97975.82
2022-08-20T09:34:52.027Z,97971.51
2022-08-20T09:37:37.226Z,97971.63
2022-08-20T09:40:12.307Z,97973.47
2022-08-20T09:42:44.659Z,97976.23
2022-08-20T09:45:18.065Z,97978.84
2022-08-20T09:47:56.463Z,97982.46
2022-08-20T09:50:31.909Z,97978.55
2022-08-20T09:53:07.508Z,97975.56
2022-08-20T09:55:42.561Z,97976.13
2022-08-20T09:58:20.986Z,97976.21
2022-08-20T10:00:53.806Z,97970.14
2022-08-20T10:03:26.296Z,97964.92
2022-08-20T10:05:59.895Z,97968.19
2022-08-20T10:08:32.193Z,97968.49
2022-08-20T10:11:04.517Z,97962.98
2022-08-20T10:13:36.768Z,97959.38
2022-08-20T10:16:09.487Z,97957.42
2022-08-20T10:18:41.948Z,97956.60
2022-08-20T10:21:14.673Z,97955.54
2022-08-20T10:23:46.946Z,97948.96
2022-08-20T10:26:19.373Z,97952.33
2022-08-20T10:28:51.664Z,97954.64
2022-08-20T10:31:50.892Z,97951.34
2022-08-20T10:34:23.316Z,97946.81
2022-08-20T10:36:59.063Z,97948.30
2022-08-20T10:39:31.516Z,97955.28
2022-08-20T10:42:04.630Z,97956.00
2022-08-20T10:44:37.034Z,97959.41
2022-08-20T10:47:23.159Z,97958.95
2022-08-20T10:49:58.697Z,97957.15
2022-08-20T10:52:33.761Z,97954.93
2022-08-20T10:55:10.030Z,97956.93
2022-08-20T10:57:44.640Z,97946.84
2022-08-20T11:00:19.125Z,97947.69
2022-08-20T11:02:52.035Z,97949.58
2022-08-20T11:05:24.512Z,97950.54
2022-08-20T11:07:57.811Z,97946.38
2022-08-20T11:10:33.331Z,97950.95
2022-08-20T11:13:07.489Z,97951.73
2022-08-20T11:15:42.151Z,97952.77
2022-08-20T11:18:15.412Z,97953.73
2022-08-20T11:20:47.685Z,97958.86
2022-08-20T11:23:20.335Z,97950.55
2022-08-20T11:25:53.346Z,97946.94
2022-08-20T11:28:31.308Z,97949.50
2022-08-20T11:31:04.635Z,97952.09
2022-08-20T11:33:37.093Z,97953.63
2022-08-20T11:36:10.154Z,97955.10
2022-08-20T11:38:43.287Z,97953.94
2022-08-20T11:41:15.855Z,97949.19
2022-08-20T11:44:10.495Z,97940.83
2022-08-20T11:46:43.252Z,97935.61
2022-08-20T11:49:15.741Z,97935.98
2022-08-20T11:51:50.123Z,97937.73
2022-08-20T11:54:23.199Z,97935.63
2022-08-20T11:56:56.355Z,97930.98
2022-08-20T11:59:29.143Z,97931.08
2022-08-20T12:02:12.150Z,97934.55
2022-08-20T12:04:45.570Z,97931.69
2022-08-20T12:07:21.208Z,97927.48
2022-08-20T12:09:54.321Z,97927.16
2022-08-20T12:12:27.426Z,97919.44
2022-08-20T12:14:59.638Z,97913.73
2022-08-20T12:17:33.480Z,97915.00
2022-08-20T12:20:12.364Z,97920.35
2022-08-20T12:22:45.052Z,97910.25
2022-08-20T12:25:17.760Z,97908.66
2022-08-20T12:27:50.121Z,97906.93
2022-08-20T12:30:25.388Z,97910.40
2022-08-20T12:32:57.801Z,97910.29
2022-08-20T12:35:31.665Z,97908.02
2022-08-20T12:38:06.719Z,97904.50
2022-08-20T12:40:39.533Z,97904.95
2022-08-20T12:43:11.760Z,97902.42
2022-08-20T12:45:44.201Z,97904.54
2022-08-20T12:48:21.053Z,97900.78
2022-08-20T12:50:53.861Z,97892.75
2022-08-20T12:53:26.286Z,97887.50
2022-08-20T12:55:58.676Z,97882.81
2022-08-20T12:58:31.055Z,97888.27
2022-08-20T13:01:03.693Z,97889.29
2022-08-20T13:03:40.230Z,97888.56
2022-08-20T13:06:17.679Z,97889.96
2022-08-20T13:08:49.940Z,97895.04
2022-08-20T13:11:24.639Z,97899.39
2022-08-20T13:13:56.793Z,97903.14
2022-08-20T13:16:29.359Z,97907.79
2022-08-20T13:19:01.987Z,97905.23
2022-08-20T13:21:34.282Z,97907.08
2022-08-20T13:24:07.400Z,97913.77
2022-08-20T13:26:40.088Z,97920.16
2022-08-20T13:29:12.429Z,97923.22
2022-08-20T13:31:45.447Z,97917.80
2022-08-20T13:34:17.876Z,97922.38
2022-08-20T13:36:50.144Z,97924.55
2022-08-20T13:39:23.147Z,97925.63
2022-08-20T13:41:55.687Z,97936.48
2022-08-20T13:44:33.171Z,97942.87
2022-08-20T13:47:19.431Z,97936.54
2022-08-20T13:49:58.313Z,97940.36
2022-08-20T13:52:30.816Z,97938.95
2022-08-20T13:55:06.541Z,97934.30
2022-08-20T14:01:52.389Z,97940.09
2022-08-20T14:04:25.079Z,97939.25
2022-08-20T14:06:57.312Z,97940.02
2022-08-20T14:09:30.218Z,97940.02
2022-08-20T14:12:02.785Z,97937.38
2022-08-20T14:14:35.356Z,97935.80
2022-08-20T14:17:19.084Z,97938.38
2022-08-20T14:19:53.001Z,97939.23
2022-08-20T14:22:25.961Z,97937.60
2022-08-20T14:24:59.642Z,97939.31
2022-08-20T14:27:33.428Z,97942.83
2022-08-20T14:30:09.031Z,97947.37
2022-08-20T14:32:41.164Z,97950.58
2022-08-20T14:35:15.103Z,97945.67
2022-08-20T14:37:52.043Z,97951.42
2022-08-20T14:40:29.245Z,97952.09
2022-08-20T14:43:02.241Z,97952.61
2022-08-20T14:45:34.626Z,97947.27
2022-08-20T14:48:10.165Z,97961.67
2022-08-20T14:50:42.428Z,97967.83
2022-08-20T14:53:15.872Z,97967.23
2022-08-20T14:55:48.217Z,97961.75
2022-08-20T14:58:21.666Z,97963.30
2022-08-20T15:00:54.001Z,97958.17
2022-08-20T15:03:30.466Z,97958.03
2022-08-20T15:06:02.792Z,97949.58
2022-08-20T15:08:35.280Z,97946.96
2022-08-20T15:11:08.817Z,97938.95
2022-08-20T15:13:41.110Z,97931.50
2022-08-20T15:16:13.436Z,97934.30
2022-08-20T15:18:45.665Z,97934.39
2022-08-20T15:21:21.457Z,97928.30
2022-08-20T15:23:54.077Z,97919.86
2022-08-20T15:26:26.461Z,97920.23
2022-08-20T15:28:58.648Z,97917.98
2022-08-20T15:31:31.276Z,97913.32
2022-08-20T15:34:03.572Z,97904.41
2022-08-20T15:36:35.682Z,97900.54
2022-08-20T15:39:07.963Z,97901.45
2022-08-20T15:41:40.621Z,97901.23
2022-08-20T15:44:14.081Z,97907.72
2022-08-20T15:46:46.418Z,97905.95
2022-08-20T15:49:18.630Z,97894.80
2022-08-20T15:51:52.008Z,97894.16
2022-08-20T15:54:29.702Z,97899.42
2022-08-20T15:57:08.761Z,97906.30
2022-08-20T16:00:03.329Z,97899.73
2022-08-20T16:02:59.750Z,97912.79
2022-08-20T16:05:43.529Z,97912.34
2022-08-20T16:08:33.018Z,97906.73
2022-08-20T16:11:13.665Z,97910.45
2022-08-20T16:13:50.500Z,97908.20
2022-08-20T16:37:47.528Z,97892.05
2022-08-20T16:40:56.566Z,97900.31
2022-08-20T16:43:36.538Z,97907.83
2022-08-20T16:50:33.043Z,97924.73
2022-08-20T16:53:05.955Z,97937.71
2022-08-20T16:55:38.326Z,97938.86
2022-08-20T16:58:12.013Z,97945.02
2022-08-20T17:00:45.269Z,97942.70
2022-08-20T17:03:31.646Z,97946.91
2022-08-20T17:06:25.565Z,97948.38
2022-08-20T17:08:58.604Z,97951.85
2022-08-20T17:11:34.531Z,97956.63
2022-08-20T17:14:13.640Z,97952.23
2022-08-20T17:16:48.766Z,97950.90
2022-08-20T17:19:29.492Z,97942.63
2022-08-20T17:22:12.201Z,97942.80
2022-08-20T17:24:44.378Z,97941.70
2022-08-20T17:27:29.187Z,97934.70
2022-08-20T17:30:20.135Z,97933.25
2022-08-20T17:32:58.335Z,97935.23
2022-08-20T17:35:34.607Z,97924.94
2022-08-20T17:38:07.443Z,97929.63
2022-08-20T17:40:46.017Z,97927.23
2022-08-20T17:43:29.272Z,97924.92
2022-08-20T17:46:11.241Z,97922.73
2022-08-20T17:48:49.969Z,97922.85
2022-08-20T17:51:24.497Z,97925.54
2022-08-20T17:54:11.477Z,97926.45
2022-08-20T17:56:46.783Z,97938.41
2022-08-20T18:00:01.654Z,97947.64
2022-08-20T18:02:19.834Z,97943.27
2022-08-20T18:04:54.790Z,97949.23
2022-08-20T18:07:32.401Z,97955.86
2022-08-20T18:10:08.005Z,97964.77
2022-08-20T18:12:46.536Z,97971.56
2022-08-20T18:15:24.551Z,97972.19
2022-08-20T18:18:17.315Z,97976.94
2022-08-20T18:21:15.362Z,97979.09
2022-08-20T18:23:52.437Z,97988.63
2022-08-20T18:26:43.113Z,98002.77
2022-08-20T18:29:18.287Z,98011.27
2022-08-20T18:31:55.187Z,98013.47
2022-08-20T18:34:39.648Z,98009.04
2022-08-20T18:37:26.247Z,98008.33
2022-08-20T18:40:17.621Z,98007.95
2022-08-20T18:42:50.106Z,98005.95
2022-08-20T18:45:42.286Z,97998.63
2022-08-20T18:48:24.741Z,97999.78
2022-08-20T18:50:59.312Z,97998.25
2022-08-20T18:53:35.420Z,97999.52
2022-08-20T18:56:10.811Z,97999.41
2022-08-20T18:58:57.519Z,97996.88
2022-08-20T19:01:32.710Z,98002.69
2022-08-20T19:04:15.112Z,98003.34
2022-08-20T19:06:56.856Z,98003.05
2022-08-20T19:10:03.233Z,98003.35
2022-08-20T19:13:20.823Z,97987.94
2022-08-20T19:15:58.979Z,97985.73
2022-08-20T19:18:40.944Z,97983.13
2022-08-20T19:21:16.245Z,97981.02
2022-08-20T19:23:53.513Z,97985.17
2022-08-20T19:26:28.811Z,97983.88
2022-08-20T19:29:08.335Z,97976.75
2022-08-20T19:31:41.881Z,97974.19
2022-08-20T19:34:21.885Z,97970.94
2022-08-20T19:37:09.075Z,97969.09
2022-08-20T19:39:55.703Z,97962.71
2022-08-20T19:42:33.413Z,97953.77
2022-08-20T19:45:10.396Z,97952.23
2022-08-20T19:48:04.671Z,97945.80
2022-08-20T19:50:54.997Z,97946.42
2022-08-20T19:53:31.010Z,97944.52
2022-08-20T19:56:05.657Z,97943.19
2022-08-20T19:58:41.197Z,97937.80
2022-08-20T20:01:21.260Z,97941.91
2022-08-20T20:04:02.797Z,97937.17
2022-08-20T20:06:42.762Z,97934.45
2022-08-20T20:09:22.231Z,97933.82
2022-08-20T20:12:03.260Z,97932.50
2022-08-20T20:14:39.052Z,97931.92
2022-08-20T20:17:14.787Z,97927.05
2022-08-20T20:19:57.928Z,97925.66
2022-08-20T20:22:33.396Z,97926.20
2022-08-20T20:25:18.947Z,97927.85
2022-08-20T20:27:57.963Z,97926.05
2022-08-20T20:30:35.167Z,97924.29
2022-08-20T20:33:16.475Z,97927.12
2022-08-20T20:35:49.389Z,97927.66
2022-08-20T20:38:30.224Z,97924.34
2022-08-20T20:41:05.258Z,97925.33
2022-08-20T20:43:39.644Z,97927.30
2022-08-20T20:46:19.861Z,97926.92
2022-08-20T20:48:55.083Z,97923.08
2022-08-20T20:51:30.586Z,97921.17
2022-08-20T20:54:07.454Z,97922.31
2022-08-20T20:56:42.289Z,97921.15
2022-08-20T20:59:14.605Z,97921.85
2022-08-20T21:01:49.364Z,97920.28
2022-08-20T21:04:25.295Z,97921.73
2022-08-20T21:07:00.247Z,97923.52
2022-08-20T21:09:35.212Z,97926.09
2022-08-20T21:12:09.446Z,97928.65
2022-08-20T21:14:44.508Z,97933.58
2022-08-20T21:17:21.196Z,97934.48
2022-08-20T21:19:54.465Z,97935.82
2022-08-20T21:22:26.781Z,97939.41
2022-08-20T21:24:59.066Z,97937.85
2022-08-20T21:27:33.130Z,97935.96
2022-08-20T21:30:08.851Z,97928.42
2022-08-20T21:32:41.119Z,97921.45
2022-08-20T21:35:13.688Z,97922.98
2022-08-20T21:37:48.387Z,97919.54
2022-08-20T21:40:21.806Z,97921.43
2022-08-20T21:42:54.705Z,97914.23
2022-08-20T21:45:28.525Z,97911.95
2022-08-20T21:48:01.755Z,97908.89
2022-08-20T21:50:35.702Z,97911.04
2022-08-20T21:53:09.203Z,97909.27
2022-08-20T21:55:45.143Z,97903.67
2022-08-20T21:58:17.345Z,97904.59
2022-08-20T22:00:59.464Z,97905.67
2022-08-20T22:03:38.486Z,97904.55
2022-08-20T22:06:14.528Z,97908.27
2022-08-20T22:08:47.523Z,97915.48
2022-08-20T22:11:19.720Z,97921.70
2022-08-20T22:13:52.692Z,97928.94
2022-08-20T22:16:25.287Z,97928.52
2022-08-20T22:18:57.884Z,97928.64
2022-08-20T22:21:31.933Z,97922.59
2022-08-20T22:24:07.722Z,97927.36
2022-08-20T22:26:41.947Z,97928.80
2022-08-20T22:29:14.682Z,97927.44
2022-08-20T22:31:47.160Z,97928.43
2022-08-20T22:34:21.914Z,97927.28
2022-08-20T22:36:58.196Z,97929.42
2022-08-20T22:39:30.998Z,97923.60
2022-08-20T22:42:03.290Z,97919.16
2022-08-20T22:44:35.570Z,97911.83
2022-08-20T22:47:10.293Z,97905.84
2022-08-20T22:49:44.569Z,97906.13
2022-08-20T22:52:16.861Z,97907.95
2022-08-20T22:54:49.229Z,97898.05
2022-08-20T22:57:21.758Z,97891.95
2022-08-20T22:59:56.743Z,97889.20
2022-08-20T23:02:30.672Z,97883.75
2022-08-20T23:05:03.112Z,97879.18
2022-08-20T23:07:36.361Z,97874.84
2022-08-20T23:10:09.945Z,97873.85
2022-08-20T23:12:42.341Z,97879.11
2022-08-20T23:15:14.705Z,97881.30
2022-08-20T23:17:47.931Z,97885.20
2022-08-20T23:20:20.628Z,97880.64
2022-08-20T23:22:54.749Z,97875.88
2022-08-20T23:25:27.257Z,97873.67
2022-08-20T23:28:03.968Z,97867.69
2022-08-20T23:30:36.949Z,97867.63
2022-08-20T23:33:09.214Z,97863.95
2022-08-20T23:35:43.053Z,97860.25
2022-08-20T23:38:15.482Z,97861.13
2022-08-20T23:40:47.773Z,97860.09
2022-08-20T23:43:20.206Z,97856.79
2022-08-20T23:45:53.224Z,97855.20
2022-08-20T23:48:26.503Z,97855.41
2022-08-20T23:50:58.730Z,97855.38
2022-08-20T23:53:31.149Z,97850.04
2022-08-20T23:56:03.794Z,97850.86
2022-08-20T23:58:37.126Z,97856.79
